Time;durP1;ratioP1;P1;durP2;ratioP2;P2;SDS_P1;SDS_P2;PMS_P1;PMS_P2;Temp;Humidity;BMP_temperature;BMP_pressure;BME280_temperature;BME280_humidity;BME280_pressure;Samples;Min_cycle;Max_cycle;Signal;HPM_P1;HPM_P2
2024/04/01 00:00:45;;;;;;;3.57;1.50;;;11.10;99.90;;;;;;7285113;19;20212;-82
2024/04/01 00:03:11;;;;;;;4.47;1.70;;;11.20;99.90;;;;;;7287787;19;20538;-82
2024/04/01 00:05:37;;;;;;;5.50;1.70;;;11.00;99.90;;;;;;7283728;19;20193;-83
2024/04/01 00:08:03;;;;;;;3.97;1.50;;;11.00;99.90;;;;;;7286152;19;20192;-83
2024/04/01 00:10:29;;;;;;;3.80;1.27;;;11.00;99.90;;;;;;7295264;19;20261;-83
2024/04/01 00:12:57;;;;;;;4.90;1.60;;;11.00;99.90;;;;;;7306850;19;20321;-83
2024/04/01 00:15:23;;;;;;;3.50;1.53;;;11.10;99.90;;;;;;7284200;19;20193;-83
2024/04/01 00:17:49;;;;;;;4.53;1.43;;;11.10;99.90;;;;;;7286938;19;20634;-83
2024/04/01 00:20:15;;;;;;;2.90;1.20;;;11.00;99.90;;;;;;7286155;19;20264;-83
2024/04/01 00:22:40;;;;;;;5.07;1.77;;;11.00;99.90;;;;;;7282936;19;20898;-83
2024/04/01 00:25:06;;;;;;;2.77;1.10;;;11.00;99.90;;;;;;7283476;19;20181;-83
2024/04/01 00:27:34;;;;;;;2.40;0.93;;;11.00;99.90;;;;;;7285037;19;20555;-83
2024/04/01 00:30:01;;;;;;;3.90;1.17;;;11.00;99.90;;;;;;7285649;19;20190;-84
2024/04/01 00:32:27;;;;;;;1.80;0.90;;;10.90;99.90;;;;;;7304840;19;20221;-83
2024/04/01 00:34:53;;;;;;;3.93;1.07;;;10.80;99.90;;;;;;7284664;19;20185;-83
2024/04/01 00:37:19;;;;;;;2.00;1.00;;;10.70;99.90;;;;;;7285199;19;20182;-83
2024/04/01 00:39:44;;;;;;;3.67;1.30;;;10.70;99.90;;;;;;7284846;19;20546;-83
2024/04/01 00:42:10;;;;;;;2.93;1.00;;;10.70;99.90;;;;;;7282489;19;20189;-83
2024/04/01 00:44:36;;;;;;;2.70;0.90;;;10.70;99.90;;;;;;7283341;19;20540;-83
2024/04/01 00:47:02;;;;;;;2.40;1.00;;;10.80;99.90;;;;;;7283865;19;20183;-84
2024/04/01 00:49:28;;;;;;;2.47;1.00;;;10.70;99.90;;;;;;7304763;19;20569;-81
2024/04/01 00:51:55;;;;;;;1.33;0.83;;;10.70;99.90;;;;;;7292669;19;20322;-83
2024/04/01 00:54:21;;;;;;;2.50;0.80;;;10.70;99.90;;;;;;7283589;19;20185;-83
2024/04/01 00:56:48;;;;;;;2.43;0.90;;;10.70;99.90;;;;;;7282200;19;20189;-83
2024/04/01 00:59:15;;;;;;;3.83;0.80;;;10.90;99.90;;;;;;7283318;19;20189;-83
2024/04/01 01:01:44;;;;;;;1.90;0.87;;;10.90;99.90;;;;;;7281499;19;20203;-83
2024/04/01 01:04:10;;;;;;;1.50;0.70;;;11.00;99.90;;;;;;7283602;19;20182;-82
2024/04/01 01:06:38;;;;;;;4.07;0.80;;;11.10;99.90;;;;;;7284424;19;20189;-83
2024/04/01 01:09:05;;;;;;;2.90;0.80;;;11.20;99.90;;;;;;7282740;19;20181;-83
2024/04/01 01:11:31;;;;;;;2.20;1.30;;;11.20;99.90;;;;;;7281989;19;20549;-83
2024/04/01 01:13:57;;;;;;;2.30;0.73;;;11.30;99.90;;;;;;7304654;19;21033;-82
2024/04/01 01:16:23;;;;;;;3.47;0.73;;;11.40;99.90;;;;;;7284051;19;20340;-83
2024/04/01 01:18:50;;;;;;;2.43;0.60;;;11.40;99.90;;;;;;7282925;19;20230;-83
2024/04/01 01:21:16;;;;;;;2.73;0.70;;;11.30;99.90;;;;;;7282879;19;20192;-83
2024/04/01 01:23:42;;;;;;;1.93;0.67;;;11.30;99.90;;;;;;7283159;19;20214;-82
2024/04/01 01:26:08;;;;;;;2.10;0.70;;;11.10;99.90;;;;;;7283573;19;20197;-82
2024/04/01 01:28:34;;;;;;;1.50;0.63;;;11.10;99.90;;;;;;7281165;19;20189;-82
2024/04/01 01:31:00;;;;;;;2.50;0.63;;;11.20;99.90;;;;;;7281662;19;21012;-82
2024/04/01 01:33:27;;;;;;;1.30;0.60;;;11.20;99.90;;;;;;7305049;19;20669;-83
2024/04/01 01:35:53;;;;;;;1.10;0.70;;;11.10;99.90;;;;;;7282526;19;20196;-82
2024/04/01 01:38:19;;;;;;;1.50;0.60;;;11.10;99.90;;;;;;7280314;19;20194;-83
2024/04/01 01:40:46;;;;;;;2.50;0.80;;;11.00;99.90;;;;;;7282748;19;20204;-83
2024/04/01 01:43:11;;;;;;;2.00;0.70;;;11.00;99.90;;;;;;7281886;19;20193;-83
2024/04/01 01:45:37;;;;;;;2.10;0.70;;;11.10;99.90;;;;;;7284197;19;20196;-83
2024/04/01 01:48:03;;;;;;;2.40;0.60;;;11.20;99.90;;;;;;7280153;19;20196;-82
2024/04/01 01:50:29;;;;;;;2.27;0.90;;;11.20;99.90;;;;;;7294227;19;20217;-82
2024/04/01 01:52:55;;;;;;;3.03;0.80;;;11.30;99.90;;;;;;7299994;19;20186;-83
2024/04/01 01:55:20;;;;;;;1.50;0.70;;;11.30;99.90;;;;;;7282331;19;20306;-83
2024/04/01 01:57:46;;;;;;;2.13;0.90;;;11.30;99.90;;;;;;7283244;19;20196;-83
2024/04/01 02:00:15;;;;;;;3.97;0.80;;;11.30;99.90;;;;;;7284618;19;20195;-83
2024/04/01 02:02:41;;;;;;;1.43;0.70;;;11.40;99.90;;;;;;7283372;19;20185;-83
2024/04/01 02:05:07;;;;;;;2.07;0.90;;;11.40;99.90;;;;;;7281303;19;20187;-83
2024/04/01 02:07:34;;;;;;;2.80;1.10;;;11.50;99.90;;;;;;7280541;19;20177;-82
2024/04/01 02:10:00;;;;;;;3.80;0.87;;;11.30;99.90;;;;;;7290272;19;20184;-83
2024/04/01 02:12:26;;;;;;;2.30;1.00;;;11.20;99.90;;;;;;7306914;19;20192;-82
2024/04/01 02:14:52;;;;;;;2.83;0.80;;;11.20;99.90;;;;;;7283988;19;20184;-83
2024/04/01 02:17:18;;;;;;;3.23;1.10;;;11.20;99.90;;;;;;7286885;19;20226;-82
2024/04/01 02:19:47;;;;;;;3.07;1.00;;;11.10;99.90;;;;;;7288363;19;20253;-83
2024/04/01 02:22:14;;;;;;;3.97;1.20;;;11.20;99.90;;;;;;7287898;19;20189;-83
2024/04/01 02:24:41;;;;;;;2.60;1.00;;;11.20;99.90;;;;;;7284571;19;20203;-83
2024/04/01 02:27:09;;;;;;;4.77;1.13;;;11.20;99.90;;;;;;7286791;19;20196;-82
2024/04/01 02:29:35;;;;;;;5.67;1.60;;;11.30;99.90;;;;;;7287294;19;20662;-83
2024/04/01 02:32:01;;;;;;;4.30;1.60;;;11.40;99.90;;;;;;7286281;19;20204;-83
2024/04/01 02:34:26;;;;;;;6.17;1.87;;;11.50;99.90;;;;;;7306542;19;20208;-83
2024/04/01 02:36:54;;;;;;;4.37;1.67;;;11.50;99.90;;;;;;7286697;19;20650;-83
2024/04/01 02:39:21;;;;;;;6.57;2.20;;;11.50;99.90;;;;;;7288045;19;20624;-83
2024/04/01 02:41:48;;;;;;;5.50;1.83;;;11.40;99.90;;;;;;7288287;19;20198;-83
2024/04/01 02:44:13;;;;;;;6.90;2.00;;;11.40;99.90;;;;;;7285617;19;20196;-83
2024/04/01 02:46:40;;;;;;;6.27;2.00;;;11.40;99.90;;;;;;7288419;19;20531;-83
2024/04/01 02:49:06;;;;;;;4.50;1.77;;;11.40;99.90;;;;;;7287569;19;20189;-82
2024/04/01 02:51:32;;;;;;;5.63;2.13;;;11.50;99.90;;;;;;7287641;19;20211;-83
2024/04/01 02:53:58;;;;;;;7.20;1.93;;;11.40;99.90;;;;;;7308891;19;20194;-82
2024/04/01 02:56:24;;;;;;;7.67;2.30;;;11.40;99.90;;;;;;7288522;19;20190;-83
2024/04/01 02:58:49;;;;;;;6.43;2.07;;;11.40;99.90;;;;;;7287336;19;20211;-82
2024/04/01 03:01:18;;;;;;;5.90;2.10;;;11.30;99.90;;;;;;7287648;19;20209;-83
2024/04/01 03:03:45;;;;;;;5.03;2.20;;;11.30;99.90;;;;;;7286676;19;20220;-83
2024/04/01 03:06:12;;;;;;;6.13;2.00;;;11.40;99.90;;;;;;7288225;19;20794;-83
2024/04/01 03:08:38;;;;;;;7.53;1.97;;;11.40;99.90;;;;;;7285418;19;20191;-83
2024/04/01 03:11:04;;;;;;;6.80;2.23;;;11.40;99.90;;;;;;7285109;19;20306;-83
2024/04/01 03:13:30;;;;;;;7.67;2.30;;;11.30;99.90;;;;;;7286823;19;20217;-83
2024/04/01 03:15:57;;;;;;;8.03;2.47;;;11.30;99.90;;;;;;7308355;19;20746;-83
2024/04/01 03:18:24;;;;;;;7.73;2.70;;;11.30;99.90;;;;;;7285924;19;20206;-83
2024/04/01 03:20:52;;;;;;;8.63;2.77;;;11.30;99.90;;;;;;7284291;19;20182;-83
2024/04/01 03:23:18;;;;;;;6.17;2.37;;;11.30;99.90;;;;;;7284945;19;20210;-83
2024/04/01 03:25:51;;;;;;;6.13;2.13;;;11.30;99.90;;;;;;7286561;19;20205;-83
2024/04/01 03:28:18;;;;;;;7.80;2.17;;;11.40;99.90;;;;;;7285570;19;20918;-83
2024/04/01 03:30:45;;;;;;;9.60;2.23;;;11.40;99.90;;;;;;7282947;19;20201;-83
2024/04/01 03:33:16;;;;;;;5.03;2.23;;;11.40;99.90;;;;;;7287447;19;20204;-83
2024/04/01 03:35:42;;;;;;;7.00;2.40;;;11.40;99.90;;;;;;7285471;19;20270;-83
2024/04/01 03:38:08;;;;;;;6.70;2.30;;;11.40;99.90;;;;;;7284673;19;20189;-83
2024/04/01 03:40:41;;;;;;;5.87;2.63;;;11.40;99.90;;;;;;7284114;19;20690;-83
2024/04/01 03:43:08;;;;;;;6.90;2.43;;;11.40;99.90;;;;;;7284895;19;20711;-83
2024/04/01 03:45:35;;;;;;;7.63;2.30;;;11.50;99.90;;;;;;7285889;19;20260;-83
2024/04/01 03:48:02;;;;;;;5.30;2.40;;;11.50;99.90;;;;;;7284539;19;20189;-83
2024/04/01 03:50:28;;;;;;;6.63;2.37;;;11.50;99.90;;;;;;7306123;19;20193;-83
2024/04/01 03:52:54;;;;;;;7.37;2.80;;;11.50;99.90;;;;;;7286776;19;20185;-84
2024/04/01 03:55:20;;;;;;;7.23;2.47;;;11.40;99.90;;;;;;7286550;19;20185;-84
2024/04/01 03:57:46;;;;;;;6.37;2.40;;;11.40;99.90;;;;;;7284037;19;20186;-84
2024/04/01 04:00:16;;;;;;;6.73;2.40;;;11.30;99.90;;;;;;7285259;19;20656;-84
2024/04/01 04:02:45;;;;;;;5.13;2.37;;;11.30;99.90;;;;;;7285209;19;20204;-83
2024/04/01 04:05:11;;;;;;;6.17;2.40;;;11.40;99.90;;;;;;7285119;19;20190;-84
2024/04/01 04:07:37;;;;;;;6.47;2.50;;;11.40;99.90;;;;;;7283969;19;20181;-83
2024/04/01 04:10:04;;;;;;;6.10;2.60;;;11.30;99.90;;;;;;7284325;19;20628;-83
2024/04/01 04:12:31;;;;;;;5.87;2.60;;;11.30;99.90;;;;;;7290408;19;20248;-83
2024/04/01 04:15:03;;;;;;;5.10;2.50;;;11.30;99.90;;;;;;7306538;19;20189;-83
2024/04/01 04:17:32;;;;;;;8.23;2.77;;;11.30;99.90;;;;;;7280458;19;20188;-80
2024/04/01 04:19:58;;;;;;;5.63;2.80;;;11.40;99.90;;;;;;7308407;19;20629;-83
2024/04/01 04:22:23;;;;;;;5.20;2.47;;;11.40;99.90;;;;;;7284715;19;20260;-83
2024/04/01 04:24:49;;;;;;;7.20;2.70;;;11.30;99.90;;;;;;7284028;19;20558;-83
2024/04/01 04:27:15;;;;;;;10.93;2.90;;;11.30;99.90;;;;;;7284550;19;20195;-83
2024/04/01 04:29:44;;;;;;;7.47;2.77;;;11.30;99.90;;;;;;7283995;19;20588;-81
2024/04/01 04:32:13;;;;;;;5.87;2.60;;;11.40;99.90;;;;;;7286096;19;20278;-81
2024/04/01 04:34:40;;;;;;;7.57;2.93;;;11.30;99.90;;;;;;7282906;19;20202;-82
2024/04/01 04:37:06;;;;;;;6.00;2.77;;;11.30;99.90;;;;;;7284196;19;20190;-81
2024/04/01 04:39:35;;;;;;;8.17;3.10;;;11.20;99.90;;;;;;7287165;19;20657;-81
2024/04/01 04:42:01;;;;;;;6.93;3.00;;;11.20;99.90;;;;;;7284747;19;20182;-81
2024/04/01 04:44:28;;;;;;;7.47;3.03;;;11.10;99.90;;;;;;7304433;19;20188;-81
2024/04/01 04:46:54;;;;;;;5.53;2.63;;;11.20;99.90;;;;;;7285011;19;20823;-82
2024/04/01 04:49:20;;;;;;;6.00;3.20;;;11.20;99.90;;;;;;7282587;19;20187;-82
2024/04/01 04:51:46;;;;;;;6.40;3.40;;;11.20;99.90;;;;;;7284772;19;20196;-81
2024/04/01 04:54:12;;;;;;;7.90;3.33;;;11.20;99.90;;;;;;7283594;19;20260;-81
2024/04/01 04:56:38;;;;;;;5.80;3.10;;;11.30;99.90;;;;;;7283438;19;20199;-81
2024/04/01 04:59:04;;;;;;;7.03;3.17;;;11.30;99.90;;;;;;7284582;19;20189;-81
2024/04/01 05:01:31;;;;;;;6.00;3.17;;;11.30;99.90;;;;;;7287383;19;20723;-81
2024/04/01 05:03:57;;;;;;;5.63;3.07;;;11.30;99.90;;;;;;7302190;19;20193;-81
2024/04/01 05:06:23;;;;;;;6.13;3.20;;;11.30;99.90;;;;;;7283451;19;20202;-81
2024/04/01 05:08:49;;;;;;;9.83;3.17;;;11.20;99.90;;;;;;7283252;19;20671;-82
2024/04/01 05:11:15;;;;;;;6.60;3.17;;;11.30;99.90;;;;;;7281217;19;20186;-82
2024/04/01 05:13:41;;;;;;;8.27;3.13;;;11.30;99.90;;;;;;7280246;19;20194;-82
2024/04/01 05:16:07;;;;;;;8.10;3.50;;;11.30;99.90;;;;;;7282514;19;20216;-83
2024/04/01 05:18:34;;;;;;;8.53;3.47;;;11.20;99.90;;;;;;7282734;19;20190;-81
2024/04/01 05:21:00;;;;;;;5.60;3.20;;;11.20;99.90;;;;;;7292878;19;20198;-81
2024/04/01 05:23:26;;;;;;;6.27;3.13;;;11.00;99.90;;;;;;7302880;19;20227;-84
2024/04/01 05:25:52;;;;;;;7.07;2.80;;;11.10;99.90;;;;;;7285275;19;20193;-83
2024/04/01 05:28:17;;;;;;;5.23;3.00;;;11.00;99.90;;;;;;7282166;19;20670;-83
2024/04/01 05:30:43;;;;;;;6.57;3.43;;;11.00;99.90;;;;;;7281119;19;20252;-83
2024/04/01 05:33:09;;;;;;;6.43;3.00;;;11.00;99.90;;;;;;7281967;19;20200;-83
2024/04/01 05:35:37;;;;;;;9.20;3.40;;;11.10;99.90;;;;;;7282502;19;20284;-83
2024/04/01 05:38:05;;;;;;;6.37;3.20;;;11.10;99.90;;;;;;7283341;19;20613;-83
2024/04/01 05:40:31;;;;;;;7.00;3.40;;;11.20;99.90;;;;;;7281566;19;20185;-82
2024/04/01 05:42:56;;;;;;;6.50;3.30;;;11.10;99.90;;;;;;7308335;19;20682;-83
2024/04/01 05:45:22;;;;;;;5.80;2.87;;;11.10;99.90;;;;;;7290594;19;20184;-83
2024/04/01 05:47:48;;;;;;;9.53;3.40;;;11.10;99.90;;;;;;7288980;19;20193;-84
2024/04/01 05:50:20;;;;;;;6.23;3.10;;;11.10;99.90;;;;;;7288215;19;20186;-83
2024/04/01 05:52:46;;;;;;;7.77;3.40;;;11.10;99.90;;;;;;7289339;19;20228;-84
2024/04/01 05:55:13;;;;;;;5.50;3.10;;;11.20;99.90;;;;;;7288674;19;20180;-83
2024/04/01 05:57:38;;;;;;;7.87;3.37;;;11.20;99.90;;;;;;7287886;19;20210;-83
2024/04/01 06:00:05;;;;;;;6.97;3.47;;;11.10;99.90;;;;;;7288125;19;20190;-83
2024/04/01 06:02:37;;;;;;;6.90;3.90;;;11.20;99.90;;;;;;7288730;19;20289;-83
2024/04/01 06:05:04;;;;;;;8.27;3.27;;;11.20;99.90;;;;;;7290292;19;20218;-82
2024/04/01 06:07:30;;;;;;;8.47;3.40;;;11.20;99.90;;;;;;7297848;19;20178;-82
2024/04/01 06:09:59;;;;;;;5.07;3.00;;;11.20;99.90;;;;;;7309835;19;20187;-82
2024/04/01 06:12:25;;;;;;;8.27;3.57;;;11.20;99.90;;;;;;7289977;19;20188;-83
2024/04/01 06:14:51;;;;;;;5.93;3.10;;;11.20;99.90;;;;;;7288462;19;20220;-82
2024/04/01 06:17:17;;;;;;;7.83;3.13;;;11.20;99.90;;;;;;7284766;19;20193;-83
2024/04/01 06:19:43;;;;;;;7.53;3.40;;;11.10;99.90;;;;;;7287762;19;20272;-83
2024/04/01 06:22:10;;;;;;;6.77;3.40;;;11.20;99.90;;;;;;7287347;19;20563;-81
2024/04/01 06:24:36;;;;;;;7.97;2.67;;;11.20;99.90;;;;;;7289065;19;20621;-82
2024/04/01 06:27:02;;;;;;;5.93;2.93;;;11.30;99.90;;;;;;7285983;19;20266;-84
2024/04/01 06:29:28;;;;;;;6.10;2.83;;;11.40;99.90;;;;;;7309219;19;20203;-84
2024/04/01 06:31:54;;;;;;;7.93;2.97;;;11.50;99.90;;;;;;7289516;19;20199;-83
2024/04/01 06:34:20;;;;;;;5.63;2.90;;;11.60;99.90;;;;;;7288250;19;20190;-82
2024/04/01 06:36:46;;;;;;;5.03;2.73;;;11.70;99.90;;;;;;7287905;19;20537;-82
2024/04/01 06:39:13;;;;;;;7.80;2.90;;;11.70;99.90;;;;;;7288280;19;20185;-82
2024/04/01 06:41:39;;;;;;;11.57;3.70;;;11.70;99.90;;;;;;7287177;19;20199;-84
2024/04/01 06:44:05;;;;;;;6.77;3.00;;;11.70;99.90;;;;;;7287012;19;21192;-83
2024/04/01 06:46:30;;;;;;;14.10;4.10;;;11.70;99.90;;;;;;7289189;19;20197;-83
2024/04/01 06:48:56;;;;;;;5.93;2.63;;;11.80;99.90;;;;;;7309256;19;20187;-84
2024/04/01 06:51:22;;;;;;;8.07;2.87;;;11.90;99.90;;;;;;7288090;19;20190;-83
2024/04/01 06:53:47;;;;;;;11.00;3.70;;;11.90;99.90;;;;;;7283132;19;20197;-82
2024/04/01 06:56:13;;;;;;;9.43;3.03;;;12.10;99.90;;;;;;7285861;19;20265;-84
2024/04/01 06:58:39;;;;;;;5.80;2.73;;;12.10;99.90;;;;;;7287718;19;20183;-84
2024/04/01 07:01:04;;;;;;;8.20;4.13;;;12.10;99.90;;;;;;7286900;19;20194;-83
2024/04/01 07:03:30;;;;;;;5.90;2.53;;;12.10;99.90;;;;;;7291632;19;20199;-82
2024/04/01 07:05:56;;;;;;;7.90;2.67;;;12.20;99.90;;;;;;7308917;19;20642;-82
2024/04/01 07:08:23;;;;;;;6.13;3.20;;;12.20;99.90;;;;;;7287409;19;20261;-82
2024/04/01 07:10:49;;;;;;;8.57;3.40;;;12.30;99.90;;;;;;7286855;19;21040;-81
2024/04/01 07:13:14;;;;;;;8.30;3.10;;;12.40;99.90;;;;;;7284933;19;20270;-83
2024/04/01 07:15:40;;;;;;;8.10;2.90;;;12.60;99.90;;;;;;7287786;19;20182;-82
2024/04/01 07:18:06;;;;;;;4.73;2.50;;;12.60;99.90;;;;;;7287912;19;20197;-81
2024/04/01 07:20:32;;;;;;;8.90;2.93;;;12.50;99.90;;;;;;7284728;19;20635;-82
2024/04/01 07:22:57;;;;;;;7.53;2.67;;;12.20;99.90;;;;;;7306748;19;20186;-83
2024/04/01 07:25:23;;;;;;;5.10;2.40;;;12.20;99.90;;;;;;7287700;19;20665;-82
2024/04/01 07:27:49;;;;;;;8.53;2.70;;;12.20;99.90;;;;;;7287177;19;20212;-83
2024/04/01 07:30:16;;;;;;;5.10;2.37;;;12.20;99.90;;;;;;7283767;19;20203;-82
2024/04/01 07:32:41;;;;;;;5.30;2.40;;;12.20;99.90;;;;;;7282952;19;20229;-82
2024/04/01 07:35:07;;;;;;;7.80;2.53;;;12.20;99.90;;;;;;7284136;19;20621;-83
2024/04/01 07:37:33;;;;;;;6.03;2.50;;;12.30;99.90;;;;;;7287036;19;20192;-83
2024/04/01 07:39:59;;;;;;;4.60;2.33;;;12.30;99.90;;;;;;7312560;19;20197;-80
2024/04/01 07:42:25;;;;;;;7.27;2.80;;;12.40;99.90;;;;;;7304689;19;20193;-82
2024/04/01 07:44:52;;;;;;;7.47;2.40;;;12.50;99.90;;;;;;7288529;19;20805;-83
2024/04/01 07:47:19;;;;;;;4.53;2.20;;;12.50;99.90;;;;;;7291435;19;20245;-83
2024/04/01 07:49:45;;;;;;;6.13;2.80;;;12.50;99.90;;;;;;7296890;19;20202;-83
2024/04/01 07:52:11;;;;;;;6.07;2.60;;;12.50;99.90;;;;;;7284905;19;20198;-83
2024/04/01 07:54:37;;;;;;;5.80;2.50;;;12.60;99.90;;;;;;7283849;19;20335;-82
2024/04/01 07:57:03;;;;;;;6.67;2.30;;;12.70;99.90;;;;;;7284641;19;20193;-82
2024/04/01 07:59:30;;;;;;;8.33;2.90;;;12.60;99.90;;;;;;7304473;19;20213;-79
2024/04/01 08:01:56;;;;;;;5.70;2.47;;;12.60;99.90;;;;;;7306130;19;20198;-82
2024/04/01 08:04:25;;;;;;;5.97;2.53;;;12.70;99.90;;;;;;7285587;19;20204;-83
2024/04/01 08:06:51;;;;;;;5.40;2.63;;;12.70;99.90;;;;;;7285175;19;20197;-83
2024/04/01 08:09:17;;;;;;;6.63;2.40;;;12.80;99.90;;;;;;7285158;19;20198;-82
2024/04/01 08:11:46;;;;;;;4.70;2.20;;;12.90;99.90;;;;;;7286872;19;20209;-84
2024/04/01 08:14:12;;;;;;;6.27;2.33;;;13.00;99.90;;;;;;7290124;19;20224;-84
2024/04/01 08:16:38;;;;;;;6.03;2.20;;;13.00;99.90;;;;;;7288407;19;20693;-85
2024/04/01 08:19:04;;;;;;;5.67;1.93;;;13.00;99.90;;;;;;7283278;19;20198;-83
2024/04/01 08:21:29;;;;;;;5.00;2.17;;;13.00;99.90;;;;;;7295140;19;20190;-83
2024/04/01 08:23:55;;;;;;;5.57;2.30;;;13.00;99.90;;;;;;7298838;19;20234;-81
2024/04/01 08:26:21;;;;;;;7.47;2.47;;;13.10;99.90;;;;;;7280386;19;20219;-82
2024/04/01 08:28:50;;;;;;;7.30;2.10;;;13.20;99.90;;;;;;7282626;19;20195;-82
2024/04/01 08:31:16;;;;;;;9.33;2.47;;;13.20;99.90;;;;;;7281352;19;20565;-82
2024/04/01 08:33:41;;;;;;;5.97;2.50;;;13.10;99.90;;;;;;7285536;19;20254;-84
2024/04/01 08:36:07;;;;;;;7.13;2.43;;;13.00;99.90;;;;;;7284265;19;20197;-84
2024/04/01 08:38:33;;;;;;;7.03;2.20;;;13.10;99.90;;;;;;7281876;19;20266;-78
2024/04/01 08:41:10;;;;;;;5.93;2.23;;;13.20;99.90;;;;;;7306096;19;20967;-78
2024/04/01 08:43:40;;;;;;;7.57;2.53;;;13.30;99.90;;;;;;7181159;19;2005942;-78
2024/04/01 08:46:06;;;;;;;7.63;2.43;;;13.30;99.90;;;;;;7282350;19;20195;-77
2024/04/01 08:48:33;;;;;;;5.70;2.20;;;13.40;99.90;;;;;;7283757;19;20220;-78
2024/04/01 08:51:10;;;;;;;7.07;2.23;;;13.30;99.90;;;;;;7303809;19;20215;-78
2024/04/01 08:53:47;;;;;;;5.83;2.33;;;13.40;99.90;;;;;;7179790;19;2004414;-78
2024/04/01 08:56:13;;;;;;;6.03;2.43;;;13.40;99.90;;;;;;7280268;19;20191;-78
2024/04/01 08:58:39;;;;;;;5.67;2.23;;;13.60;99.90;;;;;;7282881;19;20214;-78
2024/04/01 09:01:05;;;;;;;6.40;2.43;;;13.80;99.90;;;;;;7283421;19;20206;-78
2024/04/01 09:03:31;;;;;;;7.97;2.30;;;13.90;99.90;;;;;;7280257;19;20221;-78
2024/04/01 09:05:58;;;;;;;4.30;2.07;;;14.00;99.90;;;;;;7302488;19;21813;-77
2024/04/01 09:08:29;;;;;;;5.27;2.20;;;14.10;99.90;;;;;;7279639;19;20183;-77
2024/04/01 09:10:55;;;;;;;6.20;2.00;;;14.00;99.90;;;;;;7282497;19;20818;-78
2024/04/01 09:13:21;;;;;;;9.73;2.20;;;14.20;99.90;;;;;;7280464;19;20195;-78
2024/04/01 09:15:48;;;;;;;4.73;2.03;;;14.10;99.90;;;;;;7279290;19;20199;-77
2024/04/01 09:18:15;;;;;;;6.93;2.03;;;14.30;99.90;;;;;;7287680;19;20223;-78
2024/04/01 09:20:41;;;;;;;4.77;1.67;;;14.50;99.90;;;;;;7287975;19;20958;-80
2024/04/01 09:23:08;;;;;;;4.80;1.77;;;14.80;99.90;;;;;;7286720;19;20207;-78
2024/04/01 09:25:34;;;;;;;4.47;1.70;;;15.10;99.90;;;;;;7287426;19;20193;-78
2024/04/01 09:28:00;;;;;;;5.83;1.33;;;15.20;99.90;;;;;;7304152;19;20196;-78
2024/04/01 09:30:26;;;;;;;5.13;1.80;;;15.30;99.90;;;;;;7309291;19;20202;-79
2024/04/01 09:32:52;;;;;;;5.97;1.60;;;15.50;99.90;;;;;;7286572;19;20188;-78
2024/04/01 09:35:18;;;;;;;6.17;1.93;;;15.50;99.90;;;;;;7288632;19;20219;-78
2024/04/01 09:37:47;;;;;;;8.70;2.30;;;15.60;99.90;;;;;;7290008;19;20197;-78
2024/04/01 09:40:12;;;;;;;8.20;2.03;;;15.60;99.90;;;;;;7295098;19;20202;-78
2024/04/01 09:42:38;;;;;;;7.57;2.07;;;15.70;99.90;;;;;;7288724;19;20668;-79
2024/04/01 09:45:07;;;;;;;4.73;1.73;;;15.90;99.90;;;;;;7288322;19;20557;-78
2024/04/01 09:47:37;;;;;;;8.07;4.03;;;15.80;99.90;;;;;;7288224;19;20193;-78
2024/04/01 09:50:05;;;;;;;6.40;2.83;;;15.70;99.90;;;;;;7289594;19;20208;-79
2024/04/01 09:52:32;;;;;;;6.23;2.43;;;15.60;99.90;;;;;;7291146;19;20197;-79
2024/04/01 09:55:07;;;;;;;11.57;4.93;;;15.60;99.90;;;;;;7310184;19;20215;-79
2024/04/01 09:57:55;;;;;;;7.37;2.87;;;15.70;99.90;;;;;;7268184;19;20200;-78
2024/04/01 10:00:30;;;;;;;5.00;1.97;;;15.80;99.90;;;;;;7285866;19;20197;-79
2024/04/01 10:03:29;;;;;;;4.17;1.30;;;16.00;99.90;;;;;;7287362;19;20663;-79
2024/04/01 10:06:23;;;;;;;4.20;1.70;;;16.20;99.90;;;;;;7187327;19;2004546;-78
2024/04/01 10:09:13;;;;;;;2.43;1.30;;;16.20;99.90;;;;;;7184983;19;2004746;-78
2024/04/01 10:12:08;;;;;;;5.77;1.63;;;16.10;99.90;;;;;;7184900;19;2004624;-78
2024/04/01 10:14:42;;;;;;;4.67;1.70;;;16.30;99.90;;;;;;7264729;19;20208;-78
2024/04/01 10:17:27;;;;;;;5.33;1.70;;;16.60;99.90;;;;;;7288793;19;20201;-79
2024/04/01 10:20:14;;;;;;;5.20;1.77;;;16.50;99.90;;;;;;7285603;19;20198;-78
2024/04/01 10:23:05;;;;;;;5.47;1.57;;;16.80;99.90;;;;;;7184460;19;2004635;-79
2024/04/01 10:25:49;;;;;;;7.87;2.10;;;16.90;99.90;;;;;;7275573;19;20199;-78
2024/04/01 10:28:36;;;;;;;9.87;2.50;;;17.20;99.90;;;;;;7287252;19;20201;-79
2024/04/01 10:31:23;;;;;;;7.13;2.00;;;17.50;99.90;;;;;;7265406;19;20196;-79
2024/04/01 10:33:54;;;;;;;5.40;1.80;;;18.20;99.90;;;;;;7288279;19;20227;-79
2024/04/01 10:36:25;;;;;;;5.33;1.90;;;18.40;99.90;;;;;;7287747;19;20185;-79
2024/04/01 10:39:09;;;;;;;6.50;1.97;;;19.00;99.90;;;;;;7286421;19;20186;-79
2024/04/01 10:41:57;;;;;;;11.07;6.43;;;19.50;99.90;;;;;;7184051;19;2004567;-78
2024/04/01 10:44:48;;;;;;;7.70;2.47;;;20.20;99.90;;;;;;7287666;19;20185;-78
2024/04/01 10:47:14;;;;;;;4.33;1.37;;;20.70;99.90;;;;;;7183220;19;2004685;-79
2024/04/01 10:49:52;;;;;;;4.37;1.50;;;21.20;99.90;;;;;;7287077;19;20190;-79
2024/04/01 10:52:32;;;;;;;11.33;5.80;;;21.70;99.90;;;;;;7286303;19;20198;-79
2024/04/01 10:55:02;;;;;;;3.93;1.10;;;22.60;99.90;;;;;;7288237;19;20191;-79
2024/04/01 10:57:39;;;;;;;3.30;1.20;;;21.50;99.90;;;;;;7283908;19;20192;-79
2024/04/01 11:00:40;;;;;;;4.37;0.93;;;21.30;99.90;;;;;;7184631;19;2005150;-79
2024/04/01 11:03:43;;;;;;;4.43;0.97;;;21.00;99.90;;;;;;7184018;19;2004405;-79
2024/04/01 11:06:46;;;;;;;2.27;0.80;;;20.40;99.90;;;;;;7183656;19;2005047;-79
2024/04/01 11:09:26;;;;;;;2.30;0.70;;;19.90;99.90;;;;;;7182688;19;2006164;-79
2024/04/01 11:12:27;;;;;;;5.10;1.70;;;19.30;99.90;;;;;;7287130;19;20566;-78
2024/04/01 11:14:56;;;;;;;1.70;0.80;;;18.70;99.90;;;;;;7181526;19;2004475;-78
2024/04/01 11:17:23;;;;;;;4.10;1.23;;;18.60;99.90;;;;;;7284826;19;20196;-79
2024/04/01 11:20:05;;;;;;;2.10;0.70;;;19.20;99.90;;;;;;7286517;19;20191;-78
2024/04/01 11:22:37;;;;;;;3.20;1.13;;;20.70;99.90;;;;;;7266877;19;20196;-78
2024/04/01 11:25:22;;;;;;;3.47;1.20;;;21.60;99.90;;;;;;7283851;19;20188;-79
2024/04/01 11:28:12;;;;;;;3.97;0.80;;;21.60;99.90;;;;;;7284994;19;20195;-79
2024/04/01 11:30:38;;;;;;;2.93;0.70;;;21.70;99.90;;;;;;7180603;19;2004678;-79
2024/04/01 11:33:08;;;;;;;4.33;0.80;;;21.10;99.90;;;;;;7284770;19;20729;-79
2024/04/01 11:35:47;;;;;;;1.53;0.50;;;21.00;99.90;;;;;;7283943;19;20285;-79
2024/04/01 11:38:39;;;;;;;3.57;0.70;;;21.30;99.90;;;;;;7286450;19;20667;-79
2024/04/01 11:41:11;;;;;;;3.30;0.67;;;21.50;99.90;;;;;;7181027;19;2004819;-78
2024/04/01 11:43:38;;;;;;;2.80;0.57;;;21.50;99.90;;;;;;7281316;19;20191;-79
2024/04/01 11:46:07;;;;;;;2.70;0.60;;;21.50;99.90;;;;;;7286073;19;20192;-79
2024/04/01 11:48:33;;;;;;;2.73;0.60;;;21.80;99.90;;;;;;7285119;19;20188;-78
2024/04/01 11:51:00;;;;;;;1.53;0.50;;;21.80;99.90;;;;;;7305689;19;20184;-79
2024/04/01 11:53:25;;;;;;;2.33;0.60;;;21.60;99.90;;;;;;7283730;19;20260;-79
2024/04/01 11:55:52;;;;;;;2.07;0.60;;;22.00;99.90;;;;;;7284944;19;20241;-79
2024/04/01 11:58:18;;;;;;;4.73;0.60;;;22.90;99.90;;;;;;7287210;19;20256;-79
2024/04/01 12:00:55;;;;;;;3.33;0.83;;;23.70;99.90;;;;;;7284226;19;20204;-77
2024/04/01 12:03:22;;;;;;;1.57;0.60;;;23.90;99.00;;;;;;7283955;19;20186;-78
2024/04/01 12:05:52;;;;;;;2.30;0.50;;;23.70;97.30;;;;;;7283869;19;20213;-77
2024/04/01 12:08:24;;;;;;;5.67;0.90;;;24.10;96.40;;;;;;7284407;19;20180;-77
2024/04/01 12:10:50;;;;;;;3.07;0.70;;;23.10;96.50;;;;;;7285146;19;20182;-79
2024/04/01 12:13:26;;;;;;;2.00;0.60;;;22.60;96.70;;;;;;7281059;19;20189;-79
2024/04/01 12:15:55;;;;;;;2.43;0.70;;;22.20;96.70;;;;;;7285064;19;20192;-79
2024/04/01 12:18:23;;;;;;;3.87;0.70;;;22.20;96.70;;;;;;7284250;19;20196;-79
2024/04/01 12:20:53;;;;;;;2.20;0.50;;;22.30;96.60;;;;;;7283072;19;20213;-80
2024/04/01 12:23:24;;;;;;;2.83;0.57;;;22.60;96.20;;;;;;7283162;19;20200;-78
2024/04/01 12:25:50;;;;;;;4.50;0.60;;;22.80;95.10;;;;;;7283948;19;20213;-77
2024/04/01 12:28:17;;;;;;;4.23;0.67;;;23.40;94.00;;;;;;7284834;19;20239;-78
2024/04/01 12:30:49;;;;;;;4.13;0.90;;;23.70;93.50;;;;;;7281417;19;20200;-78
2024/04/01 12:33:16;;;;;;;2.15;0.47;;;24.20;94.70;;;;;;7282269;19;20196;-78
2024/04/01 12:35:43;;;;;;;3.40;0.80;;;24.90;91.50;;;;;;7283547;19;20196;-77
2024/04/01 12:38:13;;;;;;;4.53;1.20;;;24.80;91.70;;;;;;7282211;19;20768;-82
2024/04/01 12:40:42;;;;;;;4.32;1.10;;;25.40;91.00;;;;;;7280066;19;20785;-78
2024/04/01 12:43:14;;;;;;;2.60;0.50;;;25.20;90.00;;;;;;7280954;19;20209;-78
2024/04/01 12:45:45;;;;;;;3.30;0.57;;;24.30;86.40;;;;;;7281963;19;20193;-77
2024/04/01 12:48:16;;;;;;;2.73;0.70;;;23.70;87.80;;;;;;7281857;19;20216;-78
2024/04/01 12:50:53;;;;;;;3.63;0.70;;;22.60;90.10;;;;;;7280481;19;20204;-78
2024/04/01 12:53:23;;;;;;;4.17;0.67;;;22.10;90.70;;;;;;7279913;19;20260;-78